createdAt,value
2023-04-04T00:02:37.141Z,68.39
2023-04-04T00:07:39.817Z,78.88
2023-04-04T00:12:43.343Z,65.11
2023-04-04T00:17:46.007Z,63.28
2023-04-04T00:22:48.592Z,76.75
2023-04-04T00:27:51.700Z,67.54
2023-04-04T00:32:54.338Z,72.06
2023-04-04T00:37:57.060Z,68.83
2023-04-04T00:43:00.819Z,75.53
2023-04-04T00:48:04.318Z,69.11
2023-04-04T00:53:07.042Z,64.58
2023-04-04T00:58:10.253Z,63.53
2023-04-04T01:03:13.124Z,67.65
2023-04-04T01:08:21.676Z,68.12
2023-04-04T01:13:24.243Z,59.29
2023-04-04T01:18:29.544Z,69.68
2023-04-04T01:23:57.904Z,68.81
2023-04-04T01:29:01.904Z,70.24
2023-04-04T01:34:28.809Z,71.16
2023-04-04T01:39:52.816Z,63.73
2023-04-04T01:44:57.807Z,75.99
2023-04-04T01:50:07.206Z,61.48
2023-04-04T01:55:10.126Z,60.54
2023-04-04T02:00:13.995Z,63.43
2023-04-04T02:05:19.208Z,61.74
2023-04-04T02:10:22.678Z,67.44
2023-04-04T02:15:25.854Z,69.21
2023-04-04T02:20:28.645Z,69.33
2023-04-04T02:25:31.304Z,77.46
2023-04-04T02:30:33.956Z,66.34
2023-04-04T02:35:39.680Z,81.98
2023-04-04T02:40:45.592Z,70.52
2023-04-04T02:45:51.551Z,84.40
2023-04-04T02:50:59.867Z,83.52
2023-04-04T02:56:05.553Z,76.55
2023-04-04T03:01:08.630Z,70.38
2023-04-04T03:06:15.208Z,61.48
2023-04-04T03:11:20.223Z,66.58
2023-04-04T03:16:24.713Z,65.34
2023-04-04T03:21:28.760Z,70.95
2023-04-04T03:26:33.560Z,65.49
2023-04-04T03:31:36.157Z,68.11
2023-04-04T03:36:38.974Z,68.46
2023-04-04T03:41:41.873Z,92.80
2023-04-04T03:46:44.725Z,71.25
2023-04-04T03:51:50.270Z,71.57
2023-04-04T03:56:53.273Z,66.94
2023-04-04T04:01:55.951Z,68.79
2023-04-04T04:06:58.964Z,67.39
2023-04-04T04:12:01.754Z,69.44
2023-04-04T04:17:06.580Z,68.08
2023-04-04T04:22:09.264Z,73.15
2023-04-04T04:27:12.600Z,69.65
2023-04-04T04:32:19.258Z,71.95
2023-04-04T04:37:26.411Z,78.20
2023-04-04T04:42:31.656Z,84.80
2023-04-04T04:47:37.550Z,75.08
2023-04-04T04:52:43.686Z,73.71
2023-04-04T04:57:48.546Z,67.75
2023-04-04T05:03:00.761Z,83.82
2023-04-04T05:08:12.061Z,68.08
2023-04-04T05:13:24.044Z,70.32
2023-04-04T05:18:27.639Z,68.70
2023-04-04T05:23:31.972Z,64.89
2023-04-04T05:28:34.974Z,74.35
2023-04-04T05:33:40.286Z,66.90
2023-04-04T05:38:56.978Z,60.38
2023-04-04T05:44:05.153Z,79.40
2023-04-04T05:49:08.005Z,74.24
2023-04-04T05:54:14.930Z,65.98
2023-04-04T05:59:19.145Z,63.01
2023-04-04T06:04:32.734Z,67.51
2023-04-04T06:09:38.535Z,66.55
2023-04-04T06:14:41.494Z,68.60
2023-04-04T06:19:45.295Z,63.64
2023-04-04T06:24:48.026Z,56.92
2023-04-04T06:29:51.035Z,55.09
2023-04-04T06:34:56.356Z,69.16
2023-04-04T06:40:14.120Z,63.56
2023-04-04T06:45:18.237Z,54.52
2023-04-04T06:50:23.189Z,59.84
2023-04-04T06:55:26.633Z,56.85
2023-04-04T07:00:29.225Z,57.31
2023-04-04T07:05:32.458Z,52.24
2023-04-04T07:10:35.059Z,53.50
2023-04-04T07:15:37.602Z,48.96
2023-04-04T07:20:40.362Z,46.04
2023-04-04T07:25:44.438Z,45.78
2023-04-04T07:30:47.185Z,54.76
2023-04-04T07:35:49.823Z,43.54
2023-04-04T07:40:52.451Z,40.78
2023-04-04T07:45:58.017Z,42.60
2023-04-04T07:51:04.885Z,41.49
2023-04-04T07:56:07.575Z,44.46
2023-04-04T08:01:10.169Z,39.56
2023-04-04T08:06:13.982Z,37.90
2023-04-04T08:11:16.855Z,45.69
2023-04-04T08:16:20.468Z,40.27
2023-04-04T08:21:23.161Z,36.31
2023-04-04T08:26:25.651Z,36.60
2023-04-04T08:31:31.962Z,41.87
2023-04-04T08:36:35.221Z,34.14
2023-04-04T08:41:39.335Z,34.59
2023-04-04T08:46:42.527Z,35.52
2023-04-04T08:51:48.689Z,34.12
2023-04-04T08:56:52.974Z,33.49
2023-04-04T09:02:12.159Z,32.67
2023-04-04T09:07:16.693Z,39.70
2023-04-04T09:12:20.499Z,34.10
2023-04-04T09:17:23.922Z,34.23
2023-04-04T09:22:28.064Z,47.39
2023-04-04T09:27:30.698Z,36.53
2023-04-04T09:32:33.954Z,32.70
2023-04-04T09:37:36.636Z,31.51
2023-04-04T09:42:39.926Z,33.57
2023-04-04T09:47:43.291Z,39.57
2023-04-04T09:52:48.566Z,33.39
2023-04-04T09:57:51.185Z,30.67
2023-04-04T10:02:55.564Z,29.33
2023-04-04T10:07:59.334Z,31.08
2023-04-04T10:13:01.947Z,27.52
2023-04-04T10:18:05.916Z,25.67
2023-04-04T10:23:09.103Z,24.44
2023-04-04T10:28:12.698Z,25.24
2023-04-04T10:33:21.966Z,23.79
2023-04-04T10:38:28.933Z,29.65
2023-04-04T10:43:35.132Z,26.08
2023-04-04T10:48:38.105Z,24.16
2023-04-04T10:53:42.796Z,24.72
2023-04-04T10:58:46.235Z,23.43
2023-04-04T11:04:21.973Z,21.70
2023-04-04T11:09:46.336Z,21.46
2023-04-04T11:14:59.202Z,21.89
2023-04-04T11:20:03.957Z,20.57
2023-04-04T11:25:27.227Z,22.02
2023-04-04T11:30:29.920Z,21.08
2023-04-04T11:35:32.739Z,25.11
2023-04-04T11:40:40.226Z,28.17
2023-04-04T11:45:46.415Z,22.07
2023-04-04T11:50:50.173Z,21.29
2023-04-04T11:55:56.660Z,23.49
2023-04-04T12:00:59.693Z,19.98
2023-04-04T12:06:03.370Z,21.44
2023-04-04T12:11:11.787Z,23.23
2023-04-04T12:16:14.811Z,26.48
2023-04-04T12:21:17.943Z,27.64
2023-04-04T12:26:20.822Z,30.91
2023-04-04T12:31:24.828Z,26.49
2023-04-04T12:36:31.624Z,25.52
2023-04-04T12:41:36.264Z,28.95
2023-04-04T12:46:40.618Z,27.13
2023-04-04T12:51:45.926Z,32.82
2023-04-04T12:56:49.223Z,33.46
2023-04-04T13:01:52.938Z,26.52
2023-04-04T13:06:55.827Z,30.34
2023-04-04T13:12:00.146Z,29.17
2023-04-04T13:17:06.624Z,29.39
2023-04-04T13:22:13.097Z,27.01
2023-04-04T13:27:16.003Z,27.04
2023-04-04T13:32:18.707Z,25.18
2023-04-04T13:37:21.354Z,26.50
2023-04-04T13:42:29.556Z,24.10
2023-04-04T13:47:32.173Z,23.25
2023-04-04T13:52:34.781Z,21.78
2023-04-04T13:57:37.369Z,22.99
2023-04-04T14:02:40.392Z,22.59
2023-04-04T14:07:43.796Z,24.18
2023-04-04T14:12:47.024Z,23.25
2023-04-04T14:17:49.940Z,23.11
2023-04-04T14:22:52.584Z,22.94
2023-04-04T14:27:56.217Z,22.64
2023-04-04T14:32:59.370Z,27.53
2023-04-04T14:38:02.511Z,24.75
2023-04-04T14:43:05.270Z,23.63
2023-04-04T14:48:07.939Z,25.94
2023-04-04T14:53:10.634Z,24.98
2023-04-04T14:58:14.226Z,25.96
2023-04-04T15:03:17.100Z,28.30
2023-04-04T15:08:20.128Z,25.61
2023-04-04T15:13:23.008Z,29.64
2023-04-04T15:18:25.848Z,26.95
2023-04-04T15:23:28.442Z,26.51
2023-04-04T15:28:31.180Z,31.67
2023-04-04T15:33:34.066Z,33.16
2023-04-04T15:38:36.664Z,29.16
2023-04-04T15:43:39.214Z,37.86
2023-04-04T15:48:42.236Z,32.39
2023-04-04T15:53:45.134Z,38.43
2023-04-04T15:58:47.798Z,33.99
2023-04-04T16:03:50.646Z,31.35
2023-04-04T16:08:54.511Z,35.55
2023-04-04T16:13:57.241Z,36.00
2023-04-04T16:18:59.773Z,33.16
2023-04-04T16:24:03.723Z,36.44
2023-04-04T16:29:06.371Z,33.73
2023-04-04T16:34:09.184Z,38.38
2023-04-04T16:39:11.949Z,35.92
2023-04-04T16:44:15.924Z,36.42
2023-04-04T16:49:18.679Z,39.92
2023-04-04T16:54:21.339Z,38.20
2023-04-04T16:59:24.142Z,39.38
2023-04-04T17:04:27.066Z,36.46
2023-04-04T17:09:29.732Z,42.49
2023-04-04T17:14:32.280Z,49.48
2023-04-04T17:19:36.352Z,39.72
2023-04-04T17:24:39.521Z,41.47
2023-04-04T17:29:42.412Z,44.17
2023-04-04T17:34:46.397Z,52.16
2023-04-04T17:39:49.406Z,44.15
2023-04-04T17:44:52.001Z,43.33
2023-04-04T17:49:54.693Z,49.00
2023-04-04T17:54:57.387Z,44.65
2023-04-04T18:00:00.297Z,44.68
2023-04-04T18:05:03.257Z,42.41
2023-04-04T18:10:07.206Z,43.38
2023-04-04T18:15:11.196Z,48.45
2023-04-04T18:20:18.583Z,43.58
2023-04-04T18:25:33.581Z,49.04
2023-04-04T18:30:37.531Z,46.72
2023-04-04T18:35:40.538Z,51.68
2023-04-04T18:40:46.084Z,47.53
2023-04-04T18:45:48.875Z,50.34
2023-04-04T18:50:52.255Z,48.49
2023-04-04T18:55:55.647Z,46.70
2023-04-04T19:00:58.808Z,49.00
2023-04-04T19:06:01.988Z,48.18
2023-04-04T19:11:04.606Z,47.61
2023-04-04T19:16:07.439Z,45.08
2023-04-04T19:21:11.021Z,44.32
2023-04-04T19:26:19.341Z,47.54
2023-04-04T19:31:24.371Z,51.57
2023-04-04T19:36:28.003Z,47.57
2023-04-04T19:41:38.506Z,46.53
2023-04-04T19:46:41.181Z,50.70
2023-04-04T19:51:54.072Z,47.69
2023-04-04T19:57:03.686Z,47.83
2023-04-04T20:02:14.544Z,51.48
2023-04-04T20:07:17.317Z,47.02
2023-04-04T20:12:24.442Z,52.34
2023-04-04T20:17:27.132Z,58.10
2023-04-04T20:22:29.773Z,59.24
2023-04-04T20:27:33.369Z,54.41
2023-04-04T20:32:35.944Z,48.76
2023-04-04T20:37:38.484Z,50.21
2023-04-04T20:42:42.279Z,47.94
2023-04-04T20:47:45.351Z,48.80
2023-04-04T20:52:51.283Z,55.00
2023-04-04T20:57:56.966Z,49.61
2023-04-04T21:03:22.300Z,48.83
2023-04-04T21:08:38.338Z,56.00
2023-04-04T21:13:42.831Z,53.04
2023-04-04T21:18:46.491Z,52.34
2023-04-04T21:23:50.518Z,58.98
2023-04-04T21:28:53.171Z,52.19
2023-04-04T21:33:58.340Z,53.01
2023-04-04T21:39:12.593Z,49.88
2023-04-04T21:44:15.735Z,49.99
2023-04-04T21:49:18.969Z,57.11
2023-04-04T21:54:21.712Z,65.30
2023-04-04T21:59:24.342Z,56.94
2023-04-04T22:04:26.998Z,58.84
2023-04-04T22:09:29.916Z,53.76
2023-04-04T22:14:32.435Z,56.67
2023-04-04T22:19:43.787Z,54.43
2023-04-04T22:24:46.567Z,64.67
2023-04-04T22:29:49.104Z,55.55
2023-04-04T22:34:52.175Z,54.51
2023-04-04T22:39:55.220Z,57.63
2023-04-04T22:44:57.883Z,58.81
2023-04-04T22:50:04.884Z,55.64
2023-04-04T22:55:07.878Z,74.52
2023-04-04T23:00:12.106Z,58.86
2023-04-04T23:05:17.308Z,60.02
2023-04-04T23:10:20.877Z,56.59
2023-04-04T23:15:23.481Z,57.47
2023-04-04T23:20:26.237Z,56.91
2023-04-04T23:25:28.943Z,74.92
2023-04-04T23:30:31.617Z,60.37
2023-04-04T23:35:34.106Z,58.07
2023-04-04T23:40:36.583Z,71.89
2023-04-04T23:45:40.962Z,59.91
2023-04-04T23:50:44.608Z,56.09
2023-04-04T23:55:47.353Z,62.35
